sensor_id;sensor_type;location;lat;lon;timestamp;P1;durP1;ratioP1;P2;durP2;ratioP2
15502;SDS011;7853;52.186;5.948;2022-09-01T00:02:42;4.43;;;2.30;;
15502;SDS011;7853;52.186;5.948;2022-09-01T00:02:47;4.10;;;2.60;;
15502;SDS011;7853;52.186;5.948;2022-09-01T00:02:47;4.83;;;2.59;;
15502;SDS011;7853;52.186;5.948;2022-09-01T00:03:35;4.02;;;2.39;;
15502;SDS011;7853;52.186;5.948;2022-09-01T00:04:35;4.93;;;2.72;;
15502;SDS011;7853;52.186;5.948;2022-09-01T00:05:35;4.76;;;3.02;;
15502;SDS011;7853;52.186;5.948;2022-09-01T00:06:35;5.83;;;2.65;;
15502;SDS011;7853;52.186;5.948;2022-09-01T00:07:35;3.53;;;2.47;;
15502;SDS011;7853;52.186;5.948;2022-09-01T00:08:35;5.84;;;2.71;;
15502;SDS011;7853;52.186;5.948;2022-09-01T00:09:35;5.88;;;2.46;;
15502;SDS011;7853;52.186;5.948;2022-09-01T00:10:35;4.53;;;2.52;;
15502;SDS011;7853;52.186;5.948;2022-09-01T00:11:35;3.82;;;2.63;;
15502;SDS011;7853;52.186;5.948;2022-09-01T00:12:35;3.91;;;2.63;;
15502;SDS011;7853;52.186;5.948;2022-09-01T00:13:35;3.64;;;2.73;;
15502;SDS011;7853;52.186;5.948;2022-09-01T00:14:37;5.63;;;2.70;;
15502;SDS011;7853;52.186;5.948;2022-09-01T00:15:35;5.60;;;2.66;;
15502;SDS011;7853;52.186;5.948;2022-09-01T00:16:35;5.16;;;2.96;;
15502;SDS011;7853;52.186;5.948;2022-09-01T00:17:36;7.02;;;2.65;;
15502;SDS011;7853;52.186;5.948;2022-09-01T00:18:36;4.14;;;2.69;;
15502;SDS011;7853;52.186;5.948;2022-09-01T00:19:36;4.76;;;2.39;;
15502;SDS011;7853;52.186;5.948;2022-09-01T00:20:36;5.31;;;2.76;;
15502;SDS011;7853;52.186;5.948;2022-09-01T00:21:37;4.77;;;2.62;;
15502;SDS011;7853;52.186;5.948;2022-09-01T00:22:36;4.98;;;2.49;;
15502;SDS011;7853;52.186;5.948;2022-09-01T00:23:36;4.71;;;2.93;;
15502;SDS011;7853;52.186;5.948;2022-09-01T00:24:36;4.24;;;3.19;;
15502;SDS011;7853;52.186;5.948;2022-09-01T00:25:36;4.30;;;2.41;;
15502;SDS011;7853;52.186;5.948;2022-09-01T00:26:36;4.55;;;2.84;;
15502;SDS011;7853;52.186;5.948;2022-09-01T00:27:36;4.07;;;2.74;;
15502;SDS011;7853;52.186;5.948;2022-09-01T00:28:36;3.71;;;2.45;;
15502;SDS011;7853;52.186;5.948;2022-09-01T00:29:36;4.82;;;2.45;;
15502;SDS011;7853;52.186;5.948;2022-09-01T00:30:36;3.68;;;2.70;;
15502;SDS011;7853;52.186;5.948;2022-09-01T00:31:36;6.05;;;3.03;;
15502;SDS011;7853;52.186;5.948;2022-09-01T00:32:36;5.17;;;3.07;;
15502;SDS011;7853;52.186;5.948;2022-09-01T00:33:37;3.43;;;2.56;;
15502;SDS011;7853;52.186;5.948;2022-09-01T00:34:36;4.71;;;2.75;;
15502;SDS011;7853;52.186;5.948;2022-09-01T00:35:36;2.86;;;2.45;;
15502;SDS011;7853;52.186;5.948;2022-09-01T00:36:37;5.26;;;2.75;;
15502;SDS011;7853;52.186;5.948;2022-09-01T00:37:37;5.67;;;2.62;;
15502;SDS011;7853;52.186;5.948;2022-09-01T00:38:37;6.49;;;2.71;;
15502;SDS011;7853;52.186;5.948;2022-09-01T00:39:37;5.81;;;2.93;;
15502;SDS011;7853;52.186;5.948;2022-09-01T00:40:37;5.90;;;2.77;;
15502;SDS011;7853;52.186;5.948;2022-09-01T00:41:37;5.26;;;2.70;;
15502;SDS011;7853;52.186;5.948;2022-09-01T00:42:37;6.86;;;2.74;;
15502;SDS011;7853;52.186;5.948;2022-09-01T00:43:38;4.12;;;2.75;;
15502;SDS011;7853;52.186;5.948;2022-09-01T00:44:37;5.42;;;3.06;;
15502;SDS011;7853;52.186;5.948;2022-09-01T00:45:37;4.50;;;2.87;;
15502;SDS011;7853;52.186;5.948;2022-09-01T00:46:38;5.80;;;2.78;;
15502;SDS011;7853;52.186;5.948;2022-09-01T00:47:37;4.71;;;2.80;;
15502;SDS011;7853;52.186;5.948;2022-09-01T00:48:37;5.08;;;2.45;;
15502;SDS011;7853;52.186;5.948;2022-09-01T00:49:38;3.58;;;2.62;;
15502;SDS011;7853;52.186;5.948;2022-09-01T00:50:37;4.12;;;2.61;;
15502;SDS011;7853;52.186;5.948;2022-09-01T00:51:38;4.50;;;2.94;;
15502;SDS011;7853;52.186;5.948;2022-09-01T00:52:38;5.33;;;2.86;;
15502;SDS011;7853;52.186;5.948;2022-09-01T00:53:38;4.46;;;2.56;;
15502;SDS011;7853;52.186;5.948;2022-09-01T00:54:39;4.47;;;2.66;;
15502;SDS011;7853;52.186;5.948;2022-09-01T00:55:37;3.86;;;2.56;;
15502;SDS011;7853;52.186;5.948;2022-09-01T00:56:38;4.00;;;2.82;;
15502;SDS011;7853;52.186;5.948;2022-09-01T00:57:38;5.65;;;2.65;;
15502;SDS011;7853;52.186;5.948;2022-09-01T00:58:38;4.01;;;2.77;;
15502;SDS011;7853;52.186;5.948;2022-09-01T00:59:38;5.11;;;2.63;;
15502;SDS011;7853;52.186;5.948;2022-09-01T01:00:38;4.42;;;2.98;;
15502;SDS011;7853;52.186;5.948;2022-09-01T01:01:38;4.54;;;2.91;;
15502;SDS011;7853;52.186;5.948;2022-09-01T01:02:38;5.06;;;3.01;;
15502;SDS011;7853;52.186;5.948;2022-09-01T01:03:38;3.85;;;2.65;;
15502;SDS011;7853;52.186;5.948;2022-09-01T01:04:38;4.68;;;2.85;;
15502;SDS011;7853;52.186;5.948;2022-09-01T01:05:39;3.72;;;2.79;;
15502;SDS011;7853;52.186;5.948;2022-09-01T01:06:38;4.58;;;2.77;;
15502;SDS011;7853;52.186;5.948;2022-09-01T01:07:38;4.40;;;2.92;;
15502;SDS011;7853;52.186;5.948;2022-09-01T01:08:39;5.41;;;2.89;;
15502;SDS011;7853;52.186;5.948;2022-09-01T01:09:39;6.93;;;2.86;;
15502;SDS011;7853;52.186;5.948;2022-09-01T01:10:39;3.79;;;2.81;;
15502;SDS011;7853;52.186;5.948;2022-09-01T01:11:38;3.34;;;2.78;;
15502;SDS011;7853;52.186;5.948;2022-09-01T01:12:38;6.78;;;3.46;;
15502;SDS011;7853;52.186;5.948;2022-09-01T01:13:46;5.13;;;3.03;;
15502;SDS011;7853;52.186;5.948;2022-09-01T01:14:38;4.56;;;2.93;;
15502;SDS011;7853;52.186;5.948;2022-09-01T01:15:39;5.02;;;2.92;;
15502;SDS011;7853;52.186;5.948;2022-09-01T01:16:40;5.82;;;2.97;;
15502;SDS011;7853;52.186;5.948;2022-09-01T01:17:38;6.18;;;2.92;;
15502;SDS011;7853;52.186;5.948;2022-09-01T01:18:38;4.40;;;2.89;;
15502;SDS011;7853;52.186;5.948;2022-09-01T01:19:40;6.14;;;3.01;;
15502;SDS011;7853;52.186;5.948;2022-09-01T01:20:39;4.03;;;3.02;;
15502;SDS011;7853;52.186;5.948;2022-09-01T01:21:40;5.91;;;2.96;;
15502;SDS011;7853;52.186;5.948;2022-09-01T01:22:40;6.09;;;2.75;;
15502;SDS011;7853;52.186;5.948;2022-09-01T01:23:39;6.47;;;2.89;;
15502;SDS011;7853;52.186;5.948;2022-09-01T01:24:39;3.62;;;2.93;;
15502;SDS011;7853;52.186;5.948;2022-09-01T01:25:40;4.45;;;2.74;;
15502;SDS011;7853;52.186;5.948;2022-09-01T01:26:39;5.09;;;3.13;;
15502;SDS011;7853;52.186;5.948;2022-09-01T01:27:39;4.34;;;3.04;;
15502;SDS011;7853;52.186;5.948;2022-09-01T01:28:40;6.02;;;2.85;;
15502;SDS011;7853;52.186;5.948;2022-09-01T01:29:39;5.97;;;3.16;;
15502;SDS011;7853;52.186;5.948;2022-09-01T01:30:41;4.69;;;3.12;;
15502;SDS011;7853;52.186;5.948;2022-09-01T01:31:39;5.22;;;2.97;;
15502;SDS011;7853;52.186;5.948;2022-09-01T01:32:39;4.36;;;2.97;;
15502;SDS011;7853;52.186;5.948;2022-09-01T01:33:40;4.08;;;2.93;;
15502;SDS011;7853;52.186;5.948;2022-09-01T01:34:39;4.53;;;2.82;;
15502;SDS011;7853;52.186;5.948;2022-09-01T01:35:39;4.53;;;3.05;;
15502;SDS011;7853;52.186;5.948;2022-09-01T01:36:39;4.54;;;2.85;;
15502;SDS011;7853;52.186;5.948;2022-09-01T01:37:40;5.08;;;2.97;;
15502;SDS011;7853;52.186;5.948;2022-09-01T01:38:40;4.72;;;2.85;;
15502;SDS011;7853;52.186;5.948;2022-09-01T01:39:40;4.62;;;3.28;;
15502;SDS011;7853;52.186;5.948;2022-09-01T01:40:40;3.79;;;2.76;;
15502;SDS011;7853;52.186;5.948;2022-09-01T01:41:41;7.74;;;3.22;;
15502;SDS011;7853;52.186;5.948;2022-09-01T01:42:41;5.19;;;3.04;;
15502;SDS011;7853;52.186;5.948;2022-09-01T01:43:40;6.32;;;3.16;;
15502;SDS011;7853;52.186;5.948;2022-09-01T01:44:40;3.85;;;2.94;;
15502;SDS011;7853;52.186;5.948;2022-09-01T01:45:40;5.59;;;3.17;;
15502;SDS011;7853;52.186;5.948;2022-09-01T01:46:41;5.54;;;2.89;;
15502;SDS011;7853;52.186;5.948;2022-09-01T01:47:40;3.42;;;3.04;;
15502;SDS011;7853;52.186;5.948;2022-09-01T01:48:41;4.30;;;2.95;;
15502;SDS011;7853;52.186;5.948;2022-09-01T01:49:40;5.54;;;3.23;;
15502;SDS011;7853;52.186;5.948;2022-09-01T01:50:40;3.88;;;2.94;;
15502;SDS011;7853;52.186;5.948;2022-09-01T01:51:40;4.59;;;3.06;;
15502;SDS011;7853;52.186;5.948;2022-09-01T01:52:40;5.63;;;2.92;;
15502;SDS011;7853;52.186;5.948;2022-09-01T01:53:40;4.99;;;3.01;;
15502;SDS011;7853;52.186;5.948;2022-09-01T01:54:40;4.65;;;3.01;;
15502;SDS011;7853;52.186;5.948;2022-09-01T01:55:40;5.59;;;2.86;;
15502;SDS011;7853;52.186;5.948;2022-09-01T01:56:40;5.13;;;3.42;;
15502;SDS011;7853;52.186;5.948;2022-09-01T01:57:40;3.92;;;3.21;;
15502;SDS011;7853;52.186;5.948;2022-09-01T01:58:40;4.49;;;2.90;;
15502;SDS011;7853;52.186;5.948;2022-09-01T01:59:40;4.05;;;3.09;;
15502;SDS011;7853;52.186;5.948;2022-09-01T02:00:41;5.49;;;3.08;;
15502;SDS011;7853;52.186;5.948;2022-09-01T02:01:41;4.76;;;2.87;;
15502;SDS011;7853;52.186;5.948;2022-09-01T02:02:41;6.09;;;3.14;;
15502;SDS011;7853;52.186;5.948;2022-09-01T02:03:41;6.64;;;3.28;;
15502;SDS011;7853;52.186;5.948;2022-09-01T02:04:41;4.53;;;3.00;;
15502;SDS011;7853;52.186;5.948;2022-09-01T02:05:41;4.60;;;3.21;;
15502;SDS011;7853;52.186;5.948;2022-09-01T02:06:41;4.01;;;3.27;;
15502;SDS011;7853;52.186;5.948;2022-09-01T02:07:41;4.89;;;3.09;;
15502;SDS011;7853;52.186;5.948;2022-09-01T02:08:41;4.09;;;3.33;;
15502;SDS011;7853;52.186;5.948;2022-09-01T02:09:41;5.58;;;3.23;;
15502;SDS011;7853;52.186;5.948;2022-09-01T02:10:42;5.44;;;3.46;;
15502;SDS011;7853;52.186;5.948;2022-09-01T02:11:41;5.09;;;3.55;;
15502;SDS011;7853;52.186;5.948;2022-09-01T02:12:41;4.82;;;3.43;;
15502;SDS011;7853;52.186;5.948;2022-09-01T02:13:41;4.04;;;3.05;;
15502;SDS011;7853;52.186;5.948;2022-09-01T02:14:41;5.26;;;3.45;;
15502;SDS011;7853;52.186;5.948;2022-09-01T02:15:42;4.95;;;3.53;;
15502;SDS011;7853;52.186;5.948;2022-09-01T02:16:41;4.43;;;3.66;;
15502;SDS011;7853;52.186;5.948;2022-09-01T02:17:41;4.28;;;3.28;;
15502;SDS011;7853;52.186;5.948;2022-09-01T02:18:42;4.98;;;3.31;;
15502;SDS011;7853;52.186;5.948;2022-09-01T02:19:41;5.46;;;3.43;;
15502;SDS011;7853;52.186;5.948;2022-09-01T02:20:42;4.85;;;3.48;;
15502;SDS011;7853;52.186;5.948;2022-09-01T02:21:41;5.39;;;3.30;;
15502;SDS011;7853;52.186;5.948;2022-09-01T02:22:42;4.49;;;3.32;;
15502;SDS011;7853;52.186;5.948;2022-09-01T02:23:42;4.56;;;3.46;;
15502;SDS011;7853;52.186;5.948;2022-09-01T02:24:42;4.49;;;3.68;;
15502;SDS011;7853;52.186;5.948;2022-09-01T02:25:43;6.93;;;3.57;;
15502;SDS011;7853;52.186;5.948;2022-09-01T02:26:42;4.08;;;3.38;;
15502;SDS011;7853;52.186;5.948;2022-09-01T02:27:42;4.68;;;3.60;;
15502;SDS011;7853;52.186;5.948;2022-09-01T02:28:43;5.86;;;3.25;;
15502;SDS011;7853;52.186;5.948;2022-09-01T02:29:42;4.34;;;3.31;;
15502;SDS011;7853;52.186;5.948;2022-09-01T02:30:42;4.27;;;3.67;;
15502;SDS011;7853;52.186;5.948;2022-09-01T02:31:42;4.87;;;3.53;;
15502;SDS011;7853;52.186;5.948;2022-09-01T02:32:42;6.05;;;3.45;;
15502;SDS011;7853;52.186;5.948;2022-09-01T02:33:42;5.35;;;3.84;;
15502;SDS011;7853;52.186;5.948;2022-09-01T02:34:42;4.94;;;3.84;;
15502;SDS011;7853;52.186;5.948;2022-09-01T02:35:42;5.68;;;3.61;;
15502;SDS011;7853;52.186;5.948;2022-09-01T02:36:43;4.91;;;3.54;;
15502;SDS011;7853;52.186;5.948;2022-09-01T02:37:43;7.23;;;3.67;;
15502;SDS011;7853;52.186;5.948;2022-09-01T02:38:43;5.47;;;3.87;;
15502;SDS011;7853;52.186;5.948;2022-09-01T02:39:43;5.28;;;3.46;;
15502;SDS011;7853;52.186;5.948;2022-09-01T02:40:43;5.75;;;4.04;;
15502;SDS011;7853;52.186;5.948;2022-09-01T02:41:43;5.40;;;4.04;;
15502;SDS011;7853;52.186;5.948;2022-09-01T02:42:43;5.03;;;4.12;;
15502;SDS011;7853;52.186;5.948;2022-09-01T02:43:43;7.29;;;4.22;;
15502;SDS011;7853;52.186;5.948;2022-09-01T02:44:43;5.54;;;4.11;;
15502;SDS011;7853;52.186;5.948;2022-09-01T02:45:43;6.96;;;4.44;;
15502;SDS011;7853;52.186;5.948;2022-09-01T02:46:44;6.10;;;4.22;;
15502;SDS011;7853;52.186;5.948;2022-09-01T02:47:43;6.22;;;4.28;;
15502;SDS011;7853;52.186;5.948;2022-09-01T02:48:43;7.23;;;4.70;;
15502;SDS011;7853;52.186;5.948;2022-09-01T02:49:43;6.81;;;4.52;;
15502;SDS011;7853;52.186;5.948;2022-09-01T02:50:43;6.25;;;4.34;;
15502;SDS011;7853;52.186;5.948;2022-09-01T02:51:44;6.52;;;4.55;;
15502;SDS011;7853;52.186;5.948;2022-09-01T02:52:44;5.75;;;4.40;;
15502;SDS011;7853;52.186;5.948;2022-09-01T02:53:44;6.38;;;4.59;;
15502;SDS011;7853;52.186;5.948;2022-09-01T02:54:43;7.27;;;4.78;;
15502;SDS011;7853;52.186;5.948;2022-09-01T02:55:43;6.06;;;4.66;;
15502;SDS011;7853;52.186;5.948;2022-09-01T02:56:44;6.19;;;4.76;;
15502;SDS011;7853;52.186;5.948;2022-09-01T02:57:43;6.79;;;5.00;;
15502;SDS011;7853;52.186;5.948;2022-09-01T02:58:44;7.59;;;4.63;;
15502;SDS011;7853;52.186;5.948;2022-09-01T02:59:44;6.89;;;4.73;;
15502;SDS011;7853;52.186;5.948;2022-09-01T03:00:44;5.83;;;5.04;;
15502;SDS011;7853;52.186;5.948;2022-09-01T03:01:44;7.21;;;4.67;;
15502;SDS011;7853;52.186;5.948;2022-09-01T03:02:44;6.24;;;4.68;;
15502;SDS011;7853;52.186;5.948;2022-09-01T03:03:44;7.31;;;5.18;;
15502;SDS011;7853;52.186;5.948;2022-09-01T03:04:44;5.46;;;4.73;;
15502;SDS011;7853;52.186;5.948;2022-09-01T03:05:44;6.09;;;4.66;;
15502;SDS011;7853;52.186;5.948;2022-09-01T03:06:45;6.79;;;4.48;;
15502;SDS011;7853;52.186;5.948;2022-09-01T03:07:44;7.74;;;4.55;;
15502;SDS011;7853;52.186;5.948;2022-09-01T03:08:44;7.54;;;5.10;;
15502;SDS011;7853;52.186;5.948;2022-09-01T03:09:44;7.25;;;4.68;;
15502;SDS011;7853;52.186;5.948;2022-09-01T03:10:44;6.86;;;4.78;;
15502;SDS011;7853;52.186;5.948;2022-09-01T03:11:45;7.37;;;4.77;;
15502;SDS011;7853;52.186;5.948;2022-09-01T03:12:44;7.02;;;4.80;;
15502;SDS011;7853;52.186;5.948;2022-09-01T03:13:44;7.28;;;4.92;;
15502;SDS011;7853;52.186;5.948;2022-09-01T03:14:44;7.03;;;4.23;;
15502;SDS011;7853;52.186;5.948;2022-09-01T03:15:45;5.22;;;4.31;;
15502;SDS011;7853;52.186;5.948;2022-09-01T03:16:45;6.41;;;4.62;;
15502;SDS011;7853;52.186;5.948;2022-09-01T03:17:45;5.70;;;4.34;;
15502;SDS011;7853;52.186;5.948;2022-09-01T03:18:45;5.58;;;4.52;;
15502;SDS011;7853;52.186;5.948;2022-09-01T03:19:45;5.60;;;4.26;;
15502;SDS011;7853;52.186;5.948;2022-09-01T03:20:45;5.90;;;4.28;;
15502;SDS011;7853;52.186;5.948;2022-09-01T03:21:45;6.71;;;4.22;;
15502;SDS011;7853;52.186;5.948;2022-09-01T03:22:45;5.11;;;4.18;;
15502;SDS011;7853;52.186;5.948;2022-09-01T03:23:45;6.48;;;4.27;;
15502;SDS011;7853;52.186;5.948;2022-09-01T03:24:45;5.70;;;4.32;;
15502;SDS011;7853;52.186;5.948;2022-09-01T03:25:46;6.11;;;4.04;;
15502;SDS011;7853;52.186;5.948;2022-09-01T03:26:46;7.98;;;4.18;;
15502;SDS011;7853;52.186;5.948;2022-09-01T03:27:45;4.79;;;3.93;;
15502;SDS011;7853;52.186;5.948;2022-09-01T03:28:45;5.66;;;4.11;;
15502;SDS011;7853;52.186;5.948;2022-09-01T03:29:45;5.22;;;3.75;;
15502;SDS011;7853;52.186;5.948;2022-09-01T03:30:47;5.28;;;4.02;;
15502;SDS011;7853;52.186;5.948;2022-09-01T03:31:46;7.80;;;4.49;;
15502;SDS011;7853;52.186;5.948;2022-09-01T03:32:46;6.36;;;3.95;;
15502;SDS011;7853;52.186;5.948;2022-09-01T03:33:46;5.78;;;4.10;;
15502;SDS011;7853;52.186;5.948;2022-09-01T03:34:46;5.16;;;3.96;;
15502;SDS011;7853;52.186;5.948;2022-09-01T03:35:46;4.98;;;4.06;;
15502;SDS011;7853;52.186;5.948;2022-09-01T03:36:46;5.89;;;3.97;;
15502;SDS011;7853;52.186;5.948;2022-09-01T03:37:46;5.58;;;4.16;;
15502;SDS011;7853;52.186;5.948;2022-09-01T03:38:47;4.99;;;3.98;;
15502;SDS011;7853;52.186;5.948;2022-09-01T03:39:46;5.70;;;3.77;;
15502;SDS011;7853;52.186;5.948;2022-09-01T03:40:46;5.09;;;3.94;;
15502;SDS011;7853;52.186;5.948;2022-09-01T03:41:46;5.84;;;4.23;;
15502;SDS011;7853;52.186;5.948;2022-09-01T03:42:46;6.36;;;4.22;;
15502;SDS011;7853;52.186;5.948;2022-09-01T03:43:46;5.77;;;3.80;;
15502;SDS011;7853;52.186;5.948;2022-09-01T03:44:46;7.27;;;4.06;;
15502;SDS011;7853;52.186;5.948;2022-09-01T03:45:46;4.41;;;3.85;;
15502;SDS011;7853;52.186;5.948;2022-09-01T03:46:46;5.05;;;3.96;;
15502;SDS011;7853;52.186;5.948;2022-09-01T03:47:46;6.79;;;3.81;;
15502;SDS011;7853;52.186;5.948;2022-09-01T03:48:47;5.65;;;3.99;;
15502;SDS011;7853;52.186;5.948;2022-09-01T03:49:47;6.32;;;3.79;;
15502;SDS011;7853;52.186;5.948;2022-09-01T03:50:47;6.38;;;3.68;;
15502;SDS011;7853;52.186;5.948;2022-09-01T03:51:47;4.77;;;3.67;;
15502;SDS011;7853;52.186;5.948;2022-09-01T03:52:47;5.02;;;3.76;;
15502;SDS011;7853;52.186;5.948;2022-09-01T03:53:47;5.63;;;4.18;;
15502;SDS011;7853;52.186;5.948;2022-09-01T03:54:47;5.87;;;3.93;;
15502;SDS011;7853;52.186;5.948;2022-09-01T03:55:47;4.59;;;3.97;;
15502;SDS011;7853;52.186;5.948;2022-09-01T03:56:47;6.93;;;3.81;;
15502;SDS011;7853;52.186;5.948;2022-09-01T03:57:47;5.39;;;4.01;;
15502;SDS011;7853;52.186;5.948;2022-09-01T03:58:47;4.67;;;3.73;;
15502;SDS011;7853;52.186;5.948;2022-09-01T03:59:47;5.20;;;3.93;;
15502;SDS011;7853;52.186;5.948;2022-09-01T04:00:49;6.50;;;4.12;;
15502;SDS011;7853;52.186;5.948;2022-09-01T04:01:47;5.12;;;4.16;;
15502;SDS011;7853;52.186;5.948;2022-09-01T04:02:48;4.67;;;3.95;;
15502;SDS011;7853;52.186;5.948;2022-09-01T04:03:47;5.18;;;3.74;;
15502;SDS011;7853;52.186;5.948;2022-09-01T04:04:47;5.88;;;3.93;;
15502;SDS011;7853;52.186;5.948;2022-09-01T04:05:48;5.14;;;3.83;;
15502;SDS011;7853;52.186;5.948;2022-09-01T04:06:48;5.74;;;3.93;;
15502;SDS011;7853;52.186;5.948;2022-09-01T04:07:48;6.58;;;4.41;;
15502;SDS011;7853;52.186;5.948;2022-09-01T04:08:48;5.43;;;3.91;;
15502;SDS011;7853;52.186;5.948;2022-09-01T04:09:48;5.77;;;3.96;;
15502;SDS011;7853;52.186;5.948;2022-09-01T04:10:48;5.32;;;3.83;;
15502;SDS011;7853;52.186;5.948;2022-09-01T04:11:48;5.79;;;3.77;;
15502;SDS011;7853;52.186;5.948;2022-09-01T04:12:48;5.19;;;3.82;;
15502;SDS011;7853;52.186;5.948;2022-09-01T04:13:48;7.21;;;3.91;;
15502;SDS011;7853;52.186;5.948;2022-09-01T04:14:48;6.99;;;3.82;;
15502;SDS011;7853;52.186;5.948;2022-09-01T04:15:48;5.98;;;3.72;;
15502;SDS011;7853;52.186;5.948;2022-09-01T04:16:48;5.21;;;3.90;;
15502;SDS011;7853;52.186;5.948;2022-09-01T04:17:48;6.56;;;3.77;;
15502;SDS011;7853;52.186;5.948;2022-09-01T04:18:48;5.50;;;3.89;;
15502;SDS011;7853;52.186;5.948;2022-09-01T04:19:48;5.42;;;4.60;;
15502;SDS011;7853;52.186;5.948;2022-09-01T04:20:49;6.35;;;3.67;;
15502;SDS011;7853;52.186;5.948;2022-09-01T04:21:48;6.96;;;3.95;;
15502;SDS011;7853;52.186;5.948;2022-09-01T04:22:48;7.00;;;3.71;;
15502;SDS011;7853;52.186;5.948;2022-09-01T04:23:48;5.34;;;3.71;;
15502;SDS011;7853;52.186;5.948;2022-09-01T04:24:48;4.52;;;3.58;;
15502;SDS011;7853;52.186;5.948;2022-09-01T04:25:48;6.39;;;4.13;;
15502;SDS011;7853;52.186;5.948;2022-09-01T04:26:49;5.94;;;3.39;;
15502;SDS011;7853;52.186;5.948;2022-09-01T04:27:49;5.29;;;3.73;;
15502;SDS011;7853;52.186;5.948;2022-09-01T04:28:49;5.48;;;3.85;;
15502;SDS011;7853;52.186;5.948;2022-09-01T04:29:49;4.80;;;3.65;;
15502;SDS011;7853;52.186;5.948;2022-09-01T04:30:50;4.20;;;3.51;;
15502;SDS011;7853;52.186;5.948;2022-09-01T04:31:49;5.00;;;3.58;;
15502;SDS011;7853;52.186;5.948;2022-09-01T04:32:49;5.53;;;3.76;;
15502;SDS011;7853;52.186;5.948;2022-09-01T04:33:50;4.76;;;3.80;;
15502;SDS011;7853;52.186;5.948;2022-09-01T04:34:49;5.23;;;3.84;;
15502;SDS011;7853;52.186;5.948;2022-09-01T04:35:50;6.03;;;3.89;;
15502;SDS011;7853;52.186;5.948;2022-09-01T04:36:49;3.96;;;3.56;;
15502;SDS011;7853;52.186;5.948;2022-09-01T04:37:49;4.66;;;3.87;;
15502;SDS011;7853;52.186;5.948;2022-09-01T04:38:51;5.15;;;4.10;;
15502;SDS011;7853;52.186;5.948;2022-09-01T04:39:50;5.56;;;4.11;;
15502;SDS011;7853;52.186;5.948;2022-09-01T04:40:50;6.28;;;3.77;;
15502;SDS011;7853;52.186;5.948;2022-09-01T04:41:50;9.45;;;3.97;;
15502;SDS011;7853;52.186;5.948;2022-09-01T04:42:50;7.12;;;3.78;;
15502;SDS011;7853;52.186;5.948;2022-09-01T04:43:50;6.03;;;3.64;;
15502;SDS011;7853;52.186;5.948;2022-09-01T04:44:50;6.74;;;3.65;;
15502;SDS011;7853;52.186;5.948;2022-09-01T04:45:50;5.49;;;3.87;;
15502;SDS011;7853;52.186;5.948;2022-09-01T04:46:50;5.20;;;3.84;;
15502;SDS011;7853;52.186;5.948;2022-09-01T04:47:50;5.13;;;3.61;;
15502;SDS011;7853;52.186;5.948;2022-09-01T04:48:51;6.78;;;4.01;;
15502;SDS011;7853;52.186;5.948;2022-09-01T04:49:50;7.13;;;3.88;;
15502;SDS011;7853;52.186;5.948;2022-09-01T04:50:50;7.04;;;3.70;;
15502;SDS011;7853;52.186;5.948;2022-09-01T04:51:51;6.84;;;4.04;;
15502;SDS011;7853;52.186;5.948;2022-09-01T04:52:50;6.31;;;3.92;;
15502;SDS011;7853;52.186;5.948;2022-09-01T04:53:50;5.73;;;3.60;;
15502;SDS011;7853;52.186;5.948;2022-09-01T04:54:50;5.17;;;3.96;;
15502;SDS011;7853;52.186;5.948;2022-09-01T04:55:50;6.64;;;3.92;;
15502;SDS011;7853;52.186;5.948;2022-09-01T04:56:50;4.93;;;3.78;;
15502;SDS011;7853;52.186;5.948;2022-09-01T04:57:50;5.25;;;3.60;;
15502;SDS011;7853;52.186;5.948;2022-09-01T04:58:51;5.93;;;3.74;;
15502;SDS011;7853;52.186;5.948;2022-09-01T04:59:51;5.73;;;3.82;;
15502;SDS011;7853;52.186;5.948;2022-09-01T05:00:51;3.89;;;3.46;;
15502;SDS011;7853;52.186;5.948;2022-09-01T05:01:51;5.86;;;3.59;;
15502;SDS011;7853;52.186;5.948;2022-09-01T05:02:52;6.99;;;3.84;;
15502;SDS011;7853;52.186;5.948;2022-09-01T05:03:51;5.88;;;3.95;;
15502;SDS011;7853;52.186;5.948;2022-09-01T05:04:51;4.74;;;3.69;;
15502;SDS011;7853;52.186;5.948;2022-09-01T05:05:51;4.75;;;3.72;;
15502;SDS011;7853;52.186;5.948;2022-09-01T05:06:52;6.48;;;3.99;;
15502;SDS011;7853;52.186;5.948;2022-09-01T05:07:51;6.47;;;3.93;;
15502;SDS011;7853;52.186;5.948;2022-09-01T05:08:51;6.21;;;3.78;;
15502;SDS011;7853;52.186;5.948;2022-09-01T05:09:51;5.93;;;3.97;;
15502;SDS011;7853;52.186;5.948;2022-09-01T05:10:52;5.58;;;3.95;;
15502;SDS011;7853;52.186;5.948;2022-09-01T05:11:51;4.90;;;3.57;;
15502;SDS011;7853;52.186;5.948;2022-09-01T05:12:51;4.89;;;3.66;;
15502;SDS011;7853;52.186;5.948;2022-09-01T05:13:51;6.09;;;3.91;;
15502;SDS011;7853;52.186;5.948;2022-09-01T05:14:52;5.36;;;3.83;;
15502;SDS011;7853;52.186;5.948;2022-09-01T05:15:58;5.47;;;3.67;;
15502;SDS011;7853;52.186;5.948;2022-09-01T05:16:55;5.09;;;3.92;;
15502;SDS011;7853;52.186;5.948;2022-09-01T05:17:52;4.98;;;3.58;;
15502;SDS011;7853;52.186;5.948;2022-09-01T05:18:52;5.52;;;3.77;;
15502;SDS011;7853;52.186;5.948;2022-09-01T05:19:52;4.60;;;3.90;;
15502;SDS011;7853;52.186;5.948;2022-09-01T05:20:52;6.05;;;3.91;;
15502;SDS011;7853;52.186;5.948;2022-09-01T05:21:52;5.22;;;3.77;;
15502;SDS011;7853;52.186;5.948;2022-09-01T05:22:52;5.46;;;3.71;;
15502;SDS011;7853;52.186;5.948;2022-09-01T05:23:52;5.18;;;3.93;;
15502;SDS011;7853;52.186;5.948;2022-09-01T05:24:52;6.47;;;4.04;;
15502;SDS011;7853;52.186;5.948;2022-09-01T05:25:52;5.77;;;3.66;;
15502;SDS011;7853;52.186;5.948;2022-09-01T05:26:52;5.63;;;3.68;;
15502;SDS011;7853;52.186;5.948;2022-09-01T05:27:52;9.05;;;4.55;;
15502;SDS011;7853;52.186;5.948;2022-09-01T05:28:54;4.86;;;3.57;;
15502;SDS011;7853;52.186;5.948;2022-09-01T05:29:52;5.67;;;3.85;;
15502;SDS011;7853;52.186;5.948;2022-09-01T05:30:52;6.34;;;3.90;;
15502;SDS011;7853;52.186;5.948;2022-09-01T05:31:53;5.58;;;3.90;;
15502;SDS011;7853;52.186;5.948;2022-09-01T05:32:52;5.54;;;4.15;;
15502;SDS011;7853;52.186;5.948;2022-09-01T05:33:52;6.73;;;3.82;;
15502;SDS011;7853;52.186;5.948;2022-09-01T05:34:52;5.61;;;3.76;;
15502;SDS011;7853;52.186;5.948;2022-09-01T05:35:53;6.39;;;4.03;;
15502;SDS011;7853;52.186;5.948;2022-09-01T05:36:53;6.32;;;3.86;;
15502;SDS011;7853;52.186;5.948;2022-09-01T05:37:53;6.88;;;3.80;;
15502;SDS011;7853;52.186;5.948;2022-09-01T05:38:53;6.77;;;4.01;;
15502;SDS011;7853;52.186;5.948;2022-09-01T05:39:53;6.21;;;3.77;;
15502;SDS011;7853;52.186;5.948;2022-09-01T05:40:54;5.00;;;3.72;;
15502;SDS011;7853;52.186;5.948;2022-09-01T05:41:53;6.35;;;3.67;;
15502;SDS011;7853;52.186;5.948;2022-09-01T05:42:53;8.42;;;3.85;;
15502;SDS011;7853;52.186;5.948;2022-09-01T05:43:53;6.24;;;4.02;;
15502;SDS011;7853;52.186;5.948;2022-09-01T05:44:53;4.35;;;3.58;;
15502;SDS011;7853;52.186;5.948;2022-09-01T05:45:53;7.92;;;4.18;;
15502;SDS011;7853;52.186;5.948;2022-09-01T05:46:53;4.32;;;3.79;;
15502;SDS011;7853;52.186;5.948;2022-09-01T05:47:53;5.26;;;3.98;;
15502;SDS011;7853;52.186;5.948;2022-09-01T05:48:53;6.88;;;3.70;;
15502;SDS011;7853;52.186;5.948;2022-09-01T05:49:53;7.33;;;3.89;;
15502;SDS011;7853;52.186;5.948;2022-09-01T05:50:53;9.78;;;4.01;;
15502;SDS011;7853;52.186;5.948;2022-09-01T05:51:53;9.16;;;3.61;;
15502;SDS011;7853;52.186;5.948;2022-09-01T05:52:54;7.18;;;3.90;;
15502;SDS011;7853;52.186;5.948;2022-09-01T05:53:54;8.80;;;3.91;;
15502;SDS011;7853;52.186;5.948;2022-09-01T05:54:54;5.95;;;3.69;;
15502;SDS011;7853;52.186;5.948;2022-09-01T05:55:54;6.79;;;4.00;;
15502;SDS011;7853;52.186;5.948;2022-09-01T05:56:54;7.10;;;3.99;;
15502;SDS011;7853;52.186;5.948;2022-09-01T05:57:54;5.41;;;3.47;;
15502;SDS011;7853;52.186;5.948;2022-09-01T05:58:54;6.16;;;3.90;;
15502;SDS011;7853;52.186;5.948;2022-09-01T05:59:54;6.43;;;3.68;;
15502;SDS011;7853;52.186;5.948;2022-09-01T06:00:54;7.74;;;4.44;;
15502;SDS011;7853;52.186;5.948;2022-09-01T06:01:54;6.90;;;4.24;;
15502;SDS011;7853;52.186;5.948;2022-09-01T06:02:54;6.14;;;3.73;;
15502;SDS011;7853;52.186;5.948;2022-09-01T06:03:55;8.61;;;4.14;;
15502;SDS011;7853;52.186;5.948;2022-09-01T06:04:54;5.19;;;3.90;;
15502;SDS011;7853;52.186;5.948;2022-09-01T06:05:54;6.78;;;3.94;;
15502;SDS011;7853;52.186;5.948;2022-09-01T06:06:54;7.66;;;4.17;;